createdAt,value
2023-04-09T00:01:47.758Z,97471.81
2023-04-09T00:04:16.755Z,97468.31
2023-04-09T00:06:43.283Z,97461.69
2023-04-09T00:09:12.808Z,97460.81
2023-04-09T00:11:39.362Z,97456.19
2023-04-09T00:14:06.023Z,97459.66
2023-04-09T00:16:34.927Z,97461.59
2023-04-09T00:19:02.054Z,97464.63
2023-04-09T00:21:32.252Z,97463.13
2023-04-09T00:23:58.920Z,97468.44
2023-04-09T00:26:33.251Z,97470.13
2023-04-09T00:28:59.780Z,97468.69
2023-04-09T00:31:26.624Z,97474.47
2023-04-09T00:33:53.176Z,97465.69
2023-04-09T00:36:19.724Z,97469.00
2023-04-09T00:38:54.147Z,97459.84
2023-04-09T00:41:22.928Z,97460.53
2023-04-09T00:43:49.455Z,97462.81
2023-04-09T00:46:17.956Z,97458.59
2023-04-09T00:48:49.516Z,97460.44
2023-04-09T00:51:18.684Z,97460.84
2023-04-09T00:53:48.081Z,97452.72
2023-04-09T00:56:16.592Z,97453.16
2023-04-09T00:58:43.205Z,97458.47
2023-04-09T01:01:09.865Z,97455.81
2023-04-09T01:03:41.760Z,97456.53
2023-04-09T01:06:39.004Z,97454.06
2023-04-09T01:09:08.348Z,97452.38
2023-04-09T01:11:44.168Z,97444.75
2023-04-09T01:14:32.335Z,97438.25
2023-04-09T01:17:36.005Z,97444.81
2023-04-09T01:20:14.815Z,97448.63
2023-04-09T01:22:49.437Z,97441.72
2023-04-09T01:25:28.090Z,97449.63
2023-04-09T01:28:22.464Z,97440.47
2023-04-09T01:30:53.057Z,97434.72
2023-04-09T01:33:23.394Z,97440.06
2023-04-09T01:35:51.921Z,97438.56
2023-04-09T01:38:23.302Z,97435.44
2023-04-09T01:40:53.831Z,97444.63
2023-04-09T01:43:21.620Z,97439.22
2023-04-09T01:45:53.938Z,97433.75
2023-04-09T01:48:21.164Z,97445.75
2023-04-09T01:50:48.863Z,97440.72
2023-04-09T01:53:15.731Z,97443.38
2023-04-09T01:55:44.752Z,97447.09
2023-04-09T01:58:11.806Z,97444.66
2023-04-09T02:00:40.711Z,97450.47
2023-04-09T02:03:26.974Z,97443.59
2023-04-09T02:06:01.492Z,97439.78
2023-04-09T02:08:29.649Z,97445.06
2023-04-09T02:10:58.718Z,97443.56
2023-04-09T02:13:29.140Z,97439.19
2023-04-09T02:15:59.791Z,97434.56
2023-04-09T02:18:32.751Z,97433.88
2023-04-09T02:20:59.961Z,97433.69
2023-04-09T02:23:27.543Z,97432.56
2023-04-09T02:25:56.470Z,97433.69
2023-04-09T02:28:22.997Z,97434.19
2023-04-09T02:30:49.550Z,97433.13
2023-04-09T02:33:16.158Z,97433.91
2023-04-09T02:35:42.677Z,97437.81
2023-04-09T02:38:13.936Z,97431.66
2023-04-09T02:40:43.320Z,97430.22
2023-04-09T02:43:10.692Z,97437.72
2023-04-09T02:45:37.344Z,97436.53
2023-04-09T02:48:06.434Z,97439.50
2023-04-09T02:50:33.020Z,97443.09
2023-04-09T02:53:04.143Z,97438.34
2023-04-09T02:55:30.734Z,97437.84
2023-04-09T02:57:57.310Z,97437.28
2023-04-09T03:00:26.134Z,97436.94
2023-04-09T03:02:52.913Z,97431.09
2023-04-09T03:05:19.661Z,97433.16
2023-04-09T03:07:49.674Z,97423.97
2023-04-09T03:10:18.476Z,97428.47
2023-04-09T03:12:45.294Z,97425.84
2023-04-09T03:15:14.263Z,97428.91
2023-04-09T03:17:43.066Z,97430.25
2023-04-09T03:20:11.893Z,97428.44
2023-04-09T03:22:39.319Z,97426.97
2023-04-09T03:25:06.592Z,97420.50
2023-04-09T03:27:33.290Z,97423.72
2023-04-09T03:30:02.485Z,97425.81
2023-04-09T03:32:31.502Z,97417.81
2023-04-09T03:34:58.057Z,97420.13
2023-04-09T03:37:26.954Z,97415.91
2023-04-09T03:39:58.242Z,97417.88
2023-04-09T03:42:24.770Z,97416.28
2023-04-09T03:44:53.827Z,97429.94
2023-04-09T03:47:22.729Z,97432.94
2023-04-09T03:49:51.619Z,97429.19
2023-04-09T03:52:18.234Z,97432.72
2023-04-09T03:54:44.923Z,97433.06
2023-04-09T03:57:14.085Z,97431.88
2023-04-09T03:59:40.627Z,97425.78
2023-04-09T04:02:09.323Z,97436.03
2023-04-09T04:04:36.244Z,97431.47
2023-04-09T04:07:03.678Z,97435.34
2023-04-09T04:09:30.508Z,97432.56
2023-04-09T04:11:58.935Z,97439.44
2023-04-09T04:14:25.622Z,97437.47
2023-04-09T04:16:54.577Z,97432.94
2023-04-09T04:19:21.171Z,97437.47
2023-04-09T04:21:48.801Z,97441.75
2023-04-09T04:24:17.592Z,97441.59
2023-04-09T04:26:44.147Z,97444.00
2023-04-09T04:29:13.648Z,97439.63
2023-04-09T04:31:40.292Z,97441.94
2023-04-09T04:34:06.897Z,97455.22
2023-04-09T04:36:33.498Z,97451.03
2023-04-09T04:39:02.480Z,97449.13
2023-04-09T04:41:33.928Z,97459.44
2023-04-09T04:44:02.928Z,97451.50
2023-04-09T04:46:32.472Z,97459.88
2023-04-09T04:49:01.471Z,97454.69
2023-04-09T04:51:31.552Z,97464.03
2023-04-09T04:54:00.464Z,97470.50
2023-04-09T04:56:27.032Z,97465.41
2023-04-09T04:58:53.771Z,97467.75
2023-04-09T05:01:23.027Z,97463.53
2023-04-09T05:03:52.114Z,97466.78
2023-04-09T05:06:21.260Z,97463.09
2023-04-09T05:08:47.783Z,97467.47
2023-04-09T05:11:16.698Z,97469.97
2023-04-09T05:13:43.245Z,97469.22
2023-04-09T05:16:18.969Z,97469.31
2023-04-09T05:18:45.781Z,97465.09
2023-04-09T05:21:14.794Z,97464.38
2023-04-09T05:23:41.444Z,97456.78
2023-04-09T05:26:10.710Z,97456.66
2023-04-09T05:28:41.848Z,97462.72
2023-04-09T05:31:13.397Z,97466.13
2023-04-09T05:33:40.276Z,97463.53
2023-04-09T05:36:14.719Z,97460.22
2023-04-09T05:38:41.385Z,97457.38
2023-04-09T05:41:11.048Z,97451.31
2023-04-09T05:43:42.861Z,97459.13
2023-04-09T05:46:11.899Z,97448.44
2023-04-09T05:48:38.446Z,97449.69
2023-04-09T05:51:07.516Z,97452.88
2023-04-09T05:53:34.177Z,97446.34
2023-04-09T05:56:03.074Z,97447.19
2023-04-09T05:58:29.760Z,97448.13
2023-04-09T06:00:56.486Z,97451.63
2023-04-09T06:03:23.166Z,97448.97
2023-04-09T06:05:54.436Z,97454.13
2023-04-09T06:08:23.238Z,97461.78
2023-04-09T06:10:49.794Z,97466.13
2023-04-09T06:13:16.452Z,97471.41
2023-04-09T06:15:45.513Z,97467.72
2023-04-09T06:18:12.201Z,97463.59
2023-04-09T06:20:38.798Z,97472.53
2023-04-09T06:23:05.820Z,97474.31
2023-04-09T06:25:35.352Z,97476.25
2023-04-09T06:28:03.095Z,97472.72
2023-04-09T06:30:31.009Z,97479.84
2023-04-09T06:32:59.924Z,97477.66
2023-04-09T06:35:26.759Z,97470.25
2023-04-09T06:37:53.313Z,97472.63
2023-04-09T06:40:23.414Z,97476.38
2023-04-09T06:42:50.409Z,97479.97
2023-04-09T06:45:19.204Z,97480.22
2023-04-09T06:47:45.821Z,97480.25
2023-04-09T06:50:12.410Z,97479.59
2023-04-09T06:52:38.934Z,97483.03
2023-04-09T06:55:08.269Z,97490.16
2023-04-09T06:57:38.509Z,97484.63
2023-04-09T07:00:05.593Z,97486.06
2023-04-09T07:02:32.397Z,97488.53
2023-04-09T07:05:03.061Z,97485.47
2023-04-09T07:07:29.909Z,97485.41
2023-04-09T07:09:56.454Z,97479.00
2023-04-09T07:12:33.571Z,97479.09
2023-04-09T07:15:01.922Z,97480.00
2023-04-09T07:17:31.883Z,97479.31
2023-04-09T07:19:58.484Z,97481.41
2023-04-09T07:22:29.353Z,97478.31
2023-04-09T07:24:56.596Z,97466.63
2023-04-09T07:27:27.497Z,97472.06
2023-04-09T07:30:01.696Z,97472.41
2023-04-09T07:32:31.422Z,97478.25
2023-04-09T07:35:00.576Z,97484.88
2023-04-09T07:37:27.486Z,97482.56
2023-04-09T07:39:54.092Z,97486.38
2023-04-09T07:42:20.805Z,97486.41
2023-04-09T07:44:49.804Z,97485.16
2023-04-09T07:47:21.283Z,97477.13
2023-04-09T07:49:52.626Z,97472.06
2023-04-09T07:52:20.152Z,97478.19
2023-04-09T07:54:46.823Z,97485.63
2023-04-09T07:57:15.508Z,97484.88
2023-04-09T07:59:42.308Z,97483.31
2023-04-09T08:02:14.319Z,97486.03
2023-04-09T08:04:41.794Z,97482.16
2023-04-09T08:07:11.511Z,97480.22
2023-04-09T08:09:38.147Z,97478.00
2023-04-09T08:12:04.865Z,97480.16
2023-04-09T08:14:38.741Z,97490.66
2023-04-09T08:17:07.631Z,97485.59
2023-04-09T08:19:34.187Z,97483.50
2023-04-09T08:22:03.863Z,97501.66
2023-04-09T08:24:32.930Z,97486.47
2023-04-09T08:26:59.448Z,97482.81
2023-04-09T08:29:27.332Z,97494.88
2023-04-09T08:31:56.463Z,97492.28
2023-04-09T08:34:25.289Z,97495.31
2023-04-09T08:36:54.016Z,97493.59
2023-04-09T08:39:20.883Z,97486.94
2023-04-09T08:41:50.446Z,97492.41
2023-04-09T08:44:17.660Z,97492.09
2023-04-09T08:46:49.111Z,97495.19
2023-04-09T08:49:15.780Z,97495.09
2023-04-09T08:51:48.486Z,97488.41
2023-04-09T08:54:17.244Z,97491.72
2023-04-09T08:56:46.886Z,97492.84
2023-04-09T08:59:22.282Z,97498.25
2023-04-09T09:01:54.234Z,97491.97
2023-04-09T09:04:21.167Z,97489.09
2023-04-09T09:06:47.738Z,97498.28
2023-04-09T09:09:18.910Z,97495.81
2023-04-09T09:11:51.044Z,97493.34
2023-04-09T09:14:19.389Z,97496.41
2023-04-09T09:17:06.106Z,97490.63
2023-04-09T09:19:33.829Z,97492.53
2023-04-09T09:22:04.962Z,97481.78
2023-04-09T09:24:34.996Z,97494.72
2023-04-09T09:27:02.675Z,97491.72
2023-04-09T09:29:29.544Z,97489.16
2023-04-09T09:31:56.645Z,97493.19
2023-04-09T09:34:26.029Z,97494.44
2023-04-09T09:36:52.824Z,97480.25
2023-04-09T09:39:19.603Z,97488.34
2023-04-09T09:41:47.227Z,97487.84
2023-04-09T09:44:31.466Z,97479.28
2023-04-09T09:46:59.196Z,97479.41
2023-04-09T09:49:28.285Z,97477.34
2023-04-09T09:51:59.543Z,97481.06
2023-04-09T09:54:32.588Z,97474.72
2023-04-09T09:57:07.744Z,97468.75
2023-04-09T09:59:40.522Z,97467.41
2023-04-09T10:02:34.880Z,97460.13
2023-04-09T10:05:01.972Z,97468.38
2023-04-09T10:07:32.075Z,97464.25
2023-04-09T10:10:03.021Z,97456.09
2023-04-09T10:12:35.284Z,97454.56
2023-04-09T10:15:05.118Z,97452.56
2023-04-09T10:17:32.470Z,97452.31
2023-04-09T10:20:27.192Z,97458.06
2023-04-09T10:22:56.725Z,97444.44
2023-04-09T10:25:26.386Z,97442.41
2023-04-09T10:28:02.839Z,97434.34
2023-04-09T10:30:38.555Z,97438.66
2023-04-09T10:33:13.675Z,97443.28
2023-04-09T10:35:43.935Z,97440.56
2023-04-09T10:38:13.012Z,97440.56
2023-04-09T10:40:53.530Z,97448.00
2023-04-09T10:43:23.593Z,97453.38
2023-04-09T10:45:54.475Z,97451.47
2023-04-09T10:48:23.381Z,97453.38
2023-04-09T10:50:52.334Z,97443.19
2023-04-09T10:53:26.444Z,97446.56
2023-04-09T10:55:56.406Z,97445.63
2023-04-09T10:58:23.008Z,97454.28
2023-04-09T11:00:51.658Z,97449.06
2023-04-09T11:03:24.369Z,97444.03
2023-04-09T11:05:57.865Z,97435.78
2023-04-09T11:08:31.089Z,97438.53
2023-04-09T11:11:01.544Z,97442.09
2023-04-09T11:13:32.553Z,97436.94
2023-04-09T11:16:04.120Z,97430.81
2023-04-09T11:18:35.545Z,97441.38
2023-04-09T11:21:04.218Z,97441.97
2023-04-09T11:23:32.923Z,97433.91
2023-04-09T11:26:02.482Z,97434.53
2023-04-09T11:28:29.043Z,97434.91
2023-04-09T11:30:57.827Z,97428.34
2023-04-09T11:33:32.215Z,97426.31
2023-04-09T11:35:58.994Z,97420.66
2023-04-09T11:38:25.628Z,97416.47
2023-04-09T11:40:57.723Z,97421.50
2023-04-09T11:43:24.855Z,97420.06
2023-04-09T11:45:55.831Z,97426.59
2023-04-09T11:48:24.949Z,97404.63
2023-04-09T11:50:52.676Z,97418.63
2023-04-09T11:53:20.814Z,97415.72
2023-04-09T11:55:50.317Z,97414.31
2023-04-09T11:58:17.419Z,97424.78
2023-04-09T12:00:45.301Z,97415.41
2023-04-09T12:03:12.180Z,97410.88
2023-04-09T12:05:50.899Z,97419.50
2023-04-09T12:08:24.992Z,97396.38
2023-04-09T12:10:53.969Z,97399.34
2023-04-09T12:13:23.712Z,97409.63
2023-04-09T12:15:52.581Z,97415.38
2023-04-09T12:18:21.809Z,97406.34
2023-04-09T12:20:49.723Z,97411.78
2023-04-09T12:23:16.712Z,97406.91
2023-04-09T12:25:46.946Z,97401.50
2023-04-09T12:28:18.904Z,97400.59
2023-04-09T12:30:46.408Z,97399.75
2023-04-09T12:33:13.000Z,97399.50
2023-04-09T12:35:42.133Z,97397.38
2023-04-09T12:38:13.579Z,97391.78
2023-04-09T12:40:40.589Z,97397.31
2023-04-09T12:43:11.883Z,97388.88
2023-04-09T12:45:38.446Z,97397.28
2023-04-09T12:48:05.151Z,97396.63
2023-04-09T12:50:36.627Z,97388.31
2023-04-09T12:53:03.188Z,97387.31
2023-04-09T12:55:32.437Z,97389.41
2023-04-09T12:58:02.521Z,97389.91
2023-04-09T13:00:31.178Z,97386.47
2023-04-09T13:02:58.126Z,97387.25
2023-04-09T13:05:31.533Z,97384.88
2023-04-09T13:07:58.099Z,97382.94
2023-04-09T13:10:30.522Z,97380.47
2023-04-09T13:12:59.344Z,97390.09
2023-04-09T13:15:28.438Z,97379.03
2023-04-09T13:17:56.431Z,97367.06
2023-04-09T13:20:22.976Z,97375.28
2023-04-09T13:22:49.561Z,97379.69
2023-04-09T13:25:16.676Z,97373.22
2023-04-09T13:27:43.327Z,97371.19
2023-04-09T13:30:12.292Z,97363.56
2023-04-09T13:32:38.850Z,97360.19
2023-04-09T13:35:06.726Z,97356.19
2023-04-09T13:37:35.797Z,97362.16
2023-04-09T13:40:02.395Z,97349.00
2023-04-09T13:42:28.945Z,97351.22
2023-04-09T13:44:58.760Z,97352.88
2023-04-09T13:47:27.627Z,97353.69
2023-04-09T13:49:54.217Z,97358.47
2023-04-09T13:52:20.802Z,97351.47
2023-04-09T13:54:53.369Z,97351.59
2023-04-09T13:57:19.909Z,97352.13
2023-04-09T13:59:46.510Z,97343.19
2023-04-09T14:02:18.113Z,97349.66
2023-04-09T14:04:47.135Z,97344.53
2023-04-09T14:07:13.792Z,97339.09
2023-04-09T14:09:40.546Z,97340.69
2023-04-09T14:12:11.820Z,97346.63
2023-04-09T14:14:41.116Z,97344.38
2023-04-09T14:17:14.710Z,97346.47
2023-04-09T14:19:43.599Z,97337.25
2023-04-09T14:22:12.853Z,97343.47
2023-04-09T14:24:41.953Z,97342.38
2023-04-09T14:27:11.106Z,97324.97
2023-04-09T14:29:38.087Z,97327.44
2023-04-09T14:32:04.699Z,97320.84
2023-04-09T14:34:31.505Z,97319.19
2023-04-09T14:37:00.328Z,97325.25
2023-04-09T14:39:32.168Z,97319.28
2023-04-09T14:41:58.689Z,97312.66
2023-04-09T14:44:30.709Z,97314.84
2023-04-09T14:47:00.053Z,97314.38
2023-04-09T14:49:29.721Z,97318.19
2023-04-09T14:52:01.656Z,97319.44
2023-04-09T14:54:30.405Z,97308.31
2023-04-09T14:56:59.825Z,97313.13
2023-04-09T14:59:28.726Z,97323.88
2023-04-09T15:01:55.386Z,97322.28
2023-04-09T15:04:24.466Z,97323.31
2023-04-09T15:06:53.592Z,97325.78
2023-04-09T15:09:22.362Z,97318.00
2023-04-09T15:11:48.949Z,97321.25
2023-04-09T15:14:15.793Z,97325.50
2023-04-09T15:16:42.424Z,97333.97
2023-04-09T15:19:09.276Z,97328.78
2023-04-09T15:21:40.434Z,97315.94
2023-04-09T15:24:06.950Z,97319.59
2023-04-09T15:26:36.757Z,97308.25
2023-04-09T15:29:10.118Z,97307.63
2023-04-09T15:31:37.604Z,97311.13
2023-04-09T15:34:07.854Z,97319.13
2023-04-09T15:36:34.427Z,97318.00
2023-04-09T15:39:03.849Z,97314.00
2023-04-09T15:41:32.277Z,97310.69
2023-04-09T15:43:58.792Z,97308.66
2023-04-09T15:46:25.447Z,97308.50
2023-04-09T15:48:52.221Z,97311.22
2023-04-09T15:51:23.724Z,97308.13
2023-04-09T15:53:52.548Z,97304.38
2023-04-09T15:56:21.681Z,97308.56
2023-04-09T15:58:50.651Z,97307.56
2023-04-09T16:01:17.519Z,97312.38
2023-04-09T16:03:44.077Z,97304.25
2023-04-09T16:06:13.402Z,97303.53
2023-04-09T16:08:42.692Z,97311.00
2023-04-09T16:11:11.470Z,97307.81
2023-04-09T16:13:38.009Z,97309.16
2023-04-09T16:16:06.760Z,97312.22
2023-04-09T16:18:38.294Z,97315.81
2023-04-09T16:21:05.705Z,97312.31
2023-04-09T16:23:33.117Z,97315.56
2023-04-09T16:26:04.929Z,97316.16
2023-04-09T16:28:31.644Z,97308.66
2023-04-09T16:30:59.109Z,97315.56
2023-04-09T16:33:27.915Z,97315.28
2023-04-09T16:35:54.494Z,97314.50
2023-04-09T16:38:24.708Z,97313.97
2023-04-09T16:40:51.346Z,97311.78
2023-04-09T16:43:20.266Z,97302.00
2023-04-09T16:45:46.894Z,97311.06
2023-04-09T16:48:18.380Z,97313.59
2023-04-09T16:50:44.927Z,97311.44
2023-04-09T16:53:16.708Z,97315.91
2023-04-09T16:55:45.562Z,97313.25
2023-04-09T16:58:12.182Z,97310.97
2023-04-09T17:00:41.010Z,97313.91
2023-04-09T17:03:10.024Z,97313.66
2023-04-09T17:05:36.844Z,97311.75
2023-04-09T17:08:03.821Z,97315.00
2023-04-09T17:10:30.644Z,97317.06
2023-04-09T17:13:02.022Z,97312.13
2023-04-09T17:15:28.583Z,97310.66
2023-04-09T17:17:58.494Z,97314.66
2023-04-09T17:20:26.067Z,97309.69
2023-04-09T17:22:52.798Z,97316.34
2023-04-09T17:25:20.451Z,97314.06
2023-04-09T17:27:47.080Z,97317.16
2023-04-09T17:30:13.866Z,97321.22
2023-04-09T17:32:44.163Z,97322.16
2023-04-09T17:35:12.863Z,97330.31
2023-04-09T17:37:39.555Z,97327.41
2023-04-09T17:40:06.750Z,97336.56
2023-04-09T17:42:35.731Z,97332.19
2023-04-09T17:45:05.764Z,97334.44
2023-04-09T17:47:32.352Z,97338.00
2023-04-09T17:49:59.829Z,97342.28
2023-04-09T17:52:26.476Z,97339.69
2023-04-09T17:54:55.520Z,97348.28
2023-04-09T17:57:22.074Z,97342.97
2023-04-09T17:59:49.016Z,97350.88
2023-04-09T18:02:15.738Z,97359.09
2023-04-09T18:04:42.442Z,97357.25
2023-04-09T18:07:11.594Z,97360.84
2023-04-09T18:09:40.236Z,97364.72
2023-04-09T18:12:09.370Z,97371.88
2023-04-09T18:14:38.416Z,97376.19
2023-04-09T18:17:07.224Z,97376.94
2023-04-09T18:19:33.804Z,97369.63
2023-04-09T18:22:00.481Z,97367.13
2023-04-09T18:24:28.372Z,97365.72
2023-04-09T18:26:54.911Z,97374.78
2023-04-09T18:29:23.676Z,97379.31
2023-04-09T18:31:50.416Z,97376.66
2023-04-09T18:34:21.717Z,97377.94
2023-04-09T18:36:49.420Z,97376.41
2023-04-09T18:39:16.214Z,97378.88
2023-04-09T18:41:43.395Z,97387.75
2023-04-09T18:44:14.495Z,97386.75
2023-04-09T18:46:41.118Z,97389.34
2023-04-09T18:49:10.106Z,97397.53
2023-04-09T18:51:36.785Z,97396.63
2023-04-09T18:54:07.872Z,97390.22
2023-04-09T18:56:41.783Z,97400.25
2023-04-09T18:59:10.559Z,97403.44
2023-04-09T19:01:37.418Z,97400.41
2023-04-09T19:04:04.127Z,97403.88
2023-04-09T19:06:33.641Z,97400.16
2023-04-09T19:09:00.475Z,97406.28
2023-04-09T19:11:29.289Z,97404.81
2023-04-09T19:13:55.902Z,97411.44
2023-04-09T19:16:22.569Z,97405.69
2023-04-09T19:18:51.859Z,97398.28
2023-04-09T19:21:18.616Z,97403.34
2023-04-09T19:23:45.747Z,97405.72
2023-04-09T19:26:12.326Z,97405.72
2023-04-09T19:28:41.445Z,97415.88
2023-04-09T19:31:08.351Z,97409.75
2023-04-09T19:33:37.167Z,97414.00
2023-04-09T19:36:07.867Z,97403.13
2023-04-09T19:38:34.541Z,97416.50
2023-04-09T19:41:01.335Z,97412.97
2023-04-09T19:43:27.890Z,97413.44
2023-04-09T19:45:54.513Z,97409.53
2023-04-09T19:48:21.214Z,97421.56
2023-04-09T19:50:48.891Z,97424.28
2023-04-09T19:53:19.968Z,97413.47
2023-04-09T19:55:46.517Z,97423.09
2023-04-09T19:58:15.368Z,97421.97
2023-04-09T20:00:44.339Z,97432.41
2023-04-09T20:03:11.167Z,97421.19
2023-04-09T20:05:37.913Z,97423.88
2023-04-09T20:08:11.808Z,97415.78
2023-04-09T20:10:46.421Z,97426.19
2023-04-09T20:13:13.536Z,97422.72
2023-04-09T20:15:42.772Z,97419.28
2023-04-09T20:18:12.223Z,97418.91
2023-04-09T20:20:38.876Z,97422.78
2023-04-09T20:23:07.911Z,97423.91
2023-04-09T20:25:36.626Z,97424.28
2023-04-09T20:28:03.735Z,97420.78
2023-04-09T20:30:33.677Z,97416.56
2023-04-09T20:33:02.816Z,97417.72
2023-04-09T20:35:29.402Z,97416.97
2023-04-09T20:37:56.451Z,97409.97
2023-04-09T20:40:26.017Z,97422.31
2023-04-09T20:42:52.912Z,97430.78
2023-04-09T20:45:19.534Z,97425.41
2023-04-09T20:47:48.594Z,97423.44
2023-04-09T20:50:15.318Z,97418.81
2023-04-09T20:52:44.809Z,97419.63
2023-04-09T20:55:16.406Z,97422.69
2023-04-09T20:57:43.881Z,97419.56
2023-04-09T21:00:11.100Z,97416.13
2023-04-09T21:02:42.241Z,97414.94
2023-04-09T21:05:21.805Z,97424.56
2023-04-09T21:07:53.093Z,97406.09
2023-04-09T21:10:20.029Z,97419.94
2023-04-09T21:12:46.610Z,97421.00
2023-04-09T21:15:13.174Z,97417.22
2023-04-09T21:17:39.802Z,97416.03
2023-04-09T21:20:11.731Z,97407.09
2023-04-09T21:22:43.155Z,97408.63
2023-04-09T21:25:09.785Z,97416.78
2023-04-09T21:27:36.341Z,97418.47
2023-04-09T21:30:02.978Z,97412.31
2023-04-09T21:32:29.568Z,97407.88
2023-04-09T21:34:56.437Z,97408.75
2023-04-09T21:37:24.334Z,97407.59
2023-04-09T21:39:51.023Z,97409.91
2023-04-09T21:42:21.249Z,97408.84
2023-04-09T21:44:47.813Z,97408.75
2023-04-09T21:47:16.627Z,97416.44
2023-04-09T21:49:43.234Z,97416.41
2023-04-09T21:52:14.899Z,97418.34
2023-04-09T21:54:46.611Z,97411.06
2023-04-09T21:57:13.163Z,97411.75
2023-04-09T21:59:41.234Z,97412.16
2023-04-09T22:02:08.951Z,97415.06
2023-04-09T22:04:35.788Z,97413.16
2023-04-09T22:07:06.429Z,97411.94
2023-04-09T22:09:35.477Z,97409.69
2023-04-09T22:12:04.915Z,97403.50
2023-04-09T22:14:34.354Z,97406.84
2023-04-09T22:17:01.847Z,97405.41
2023-04-09T22:19:31.866Z,97406.84
2023-04-09T22:21:58.730Z,97403.84
2023-04-09T22:24:29.911Z,97406.06
2023-04-09T22:26:59.072Z,97405.25
2023-04-09T22:29:26.610Z,97401.81
2023-04-09T22:31:53.563Z,97405.19
2023-04-09T22:34:21.870Z,97398.22
2023-04-09T22:36:51.120Z,97400.94
2023-04-09T22:39:21.455Z,97399.44
2023-04-09T22:41:51.060Z,97388.69
2023-04-09T22:44:17.698Z,97398.25
2023-04-09T22:46:44.312Z,97396.66
2023-04-09T22:49:11.726Z,97402.78
2023-04-09T22:51:43.191Z,97403.97
2023-04-09T22:54:11.944Z,97400.69
2023-04-09T22:56:46.270Z,97401.69
2023-04-09T22:59:12.845Z,97399.94
2023-04-09T23:01:42.364Z,97398.69
2023-04-09T23:04:14.032Z,97399.91
2023-04-09T23:06:40.603Z,97403.13
2023-04-09T23:09:09.602Z,97397.38
2023-04-09T23:11:37.769Z,97399.63
2023-04-09T23:14:04.285Z,97400.84
2023-04-09T23:16:34.026Z,97400.72
2023-04-09T23:19:03.493Z,97398.41
2023-04-09T23:21:32.644Z,97400.69
2023-04-09T23:24:02.167Z,97403.38
2023-04-09T23:26:28.714Z,97406.94
2023-04-09T23:28:57.747Z,97395.88
2023-04-09T23:31:24.318Z,97394.50
2023-04-09T23:33:51.992Z,97401.13
2023-04-09T23:36:21.931Z,97391.97
2023-04-09T23:38:50.740Z,97395.00
2023-04-09T23:41:19.353Z,97393.44
2023-04-09T23:43:48.290Z,97398.97
2023-04-09T23:46:14.863Z,97397.50
2023-04-09T23:48:41.459Z,97392.13
2023-04-09T23:51:08.108Z,97391.34
2023-04-09T23:53:36.920Z,97394.03
2023-04-09T23:56:08.281Z,97385.97
2023-04-09T23:58:34.833Z,97393.16
